地図

経路データ

SID SEASON NUMBER BASIN SUBBASIN NAME ISO_TIME NATURE LAT LON WMO_WIND WMO_PRES WMO_AGENCY TRACK_TYPE DIST2LAND LANDFALL IFLAG USA_AGENCY USA_ATCF_ID USA_LAT USA_LON USA_RECORD USA_STATUS USA_WIND USA_PRES USA_SSHS USA_R34_NE USA_R34_SE USA_R34_SW USA_R34_NW USA_R50_NE USA_R50_SE USA_R50_SW USA_R50_NW USA_R64_NE USA_R64_SE USA_R64_SW USA_R64_NW USA_POCI USA_ROCI USA_RMW USA_EYE TOKYO_LAT TOKYO_LON TOKYO_GRADE TOKYO_WIND TOKYO_PRES TOKYO_R50_DIR TOKYO_R50_LONG TOKYO_R50_SHORT TOKYO_R30_DIR TOKYO_R30_LONG TOKYO_R30_SHORT TOKYO_LAND CMA_LAT CMA_LON CMA_CAT CMA_WIND CMA_PRES HKO_LAT HKO_LON HKO_CAT HKO_WIND HKO_PRES NEWDELHI_LAT NEWDELHI_LON NEWDELHI_GRADE NEWDELHI_WIND NEWDELHI_PRES NEWDELHI_CI NEWDELHI_DP NEWDELHI_POCI REUNION_LAT REUNION_LON REUNION_TYPE REUNION_WIND REUNION_PRES REUNION_TNUM REUNION_CI REUNION_RMW REUNION_R34_NE REUNION_R34_SE REUNION_R34_SW REUNION_R34_NW REUNION_R50_NE REUNION_R50_SE REUNION_R50_SW REUNION_R50_NW REUNION_R64_NE REUNION_R64_SE REUNION_R64_SW REUNION_R64_NW BOM_LAT BOM_LON BOM_TYPE BOM_WIND BOM_PRES BOM_TNUM BOM_CI BOM_RMW BOM_R34_NE BOM_R34_SE BOM_R34_SW BOM_R34_NW BOM_R50_NE BOM_R50_SE BOM_R50_SW BOM_R50_NW BOM_R64_NE BOM_R64_SE BOM_R64_SW BOM_R64_NW BOM_ROCI BOM_POCI BOM_EYE BOM_POS_METHOD BOM_PRES_METHOD NADI_LAT NADI_LON NADI_CAT NADI_WIND NADI_PRES WELLINGTON_LAT WELLINGTON_LON WELLINGTON_WIND WELLINGTON_PRES DS824_LAT DS824_LON DS824_STAGE DS824_WIND DS824_PRES TD9636_LAT TD9636_LON TD9636_STAGE TD9636_WIND TD9636_PRES TD9635_LAT TD9635_LON TD9635_WIND TD9635_PRES TD9635_ROCI NEUMANN_LAT NEUMANN_LON NEUMANN_CLASS NEUMANN_WIND NEUMANN_PRES MLC_LAT MLC_LON MLC_CLASS MLC_WIND MLC_PRES USA_GUST BOM_GUST BOM_GUST_PER REUNION_GUST REUNION_GUST_PER USA_SEAHGT USA_SEARAD_NE USA_SEARAD_SE USA_SEARAD_SW USA_SEARAD_NW STORM_SPEED STORM_DIR
1992269S05087 1993 97 SI MM AVIONA 1992-09-25 00:00:00 TS -4.80000 86.8000 main 1299 1281 O___________O_ jtwc_sh SH011993 -4.80000 86.8000 15 -1 -4.80000 86.8000 TC 15 8 113
1992269S05087 1993 97 SI MM AVIONA 1992-09-25 03:00:00 TS -4.95003 87.1475 main 1288 1263 P___________P_ SH011993 -4.95003 87.1475 17 -1 -4.95003 87.1475 TC 17 8 113
1992269S05087 1993 97 SI MM AVIONA 1992-09-25 06:00:00 TS -5.10000 87.5000 main 1263 1247 O___________O_ jtwc_sh SH011993 -5.10000 87.5000 20 -1 -5.10000 87.5000 TC 20 8 113
1992269S05087 1993 97 SI MM AVIONA 1992-09-25 09:00:00 TS -5.24999 87.8575 main 1239 1231 P___________P_ SH011993 -5.24999 87.8575 20 -1 -5.24999 87.8575 TC 20 8 113
1992269S05087 1993 97 SI MM AVIONA 1992-09-25 12:00:00 TS -5.40000 88.2000 main 1232 1217 O___________O_ jtwc_sh SH011993 -5.40000 88.2000 20 -1 -5.40000 88.2000 TC 20 7 114
1992269S05087 1993 97 SI MM AVIONA 1992-09-25 15:00:00 TS -5.53498 88.5150 main 1217 1199 P___________P_ SH011993 -5.53498 88.5150 22 -1 -5.53498 88.5150 TC 22 7 117
1992269S05087 1993 97 SI MM AVIONA 1992-09-25 18:00:00 TS -5.70000 88.8000 main 1199 1179 O___________O_ jtwc_sh SH011993 -5.70000 88.8000 25 -1 -5.70000 88.8000 TC 25 7 126
1992269S05087 1993 97 SI MM AVIONA 1992-09-25 21:00:00 TS -5.93500 89.0725 main 1179 1169 P___________P_ SH011993 -5.93500 89.0725 25 -1 -5.93500 89.0725 TC 25 7 135
1992269S05087 1993 97 SI MM AVIONA 1992-09-26 00:00:00 TS -6.20000 89.3000 main 1174 1166 O___________O_ jtwc_sh SH011993 -6.20000 89.3000 25 -1 -6.20000 89.3000 TC 25 7 142
1992269S05087 1993 97 SI MM AVIONA 1992-09-26 03:00:00 TS -6.44999 89.4800 main 1166 1166 P___________P_ SH011993 -6.44999 89.4800 25 -1 -6.44999 89.4800 TC 25 6 149
1992269S05087 1993 97 SI MM AVIONA 1992-09-26 06:00:00 TS -6.70000 89.6000 main 1173 1169 O___________O_ jtwc_sh SH011993 -6.70000 89.6000 25 -1 -6.70000 89.6000 TC 25 5 158
1992269S05087 1993 97 SI MM AVIONA 1992-09-26 09:00:00 TS -6.94999 89.6875 main 1175 1175 P___________P_ SH011993 -6.94999 89.6875 27 -1 -6.94999 89.6875 TC 27 5 169
1992269S05087 1993 97 SI MM AVIONA 1992-09-26 12:00:00 TS -7.20000 89.7000 main 1192 1192 O___________O_ jtwc_sh SH011993 -7.20000 89.7000 30 -1 -7.20000 89.7000 TC 30 5 183
1992269S05087 1993 97 SI MM AVIONA 1992-09-26 15:00:00 TS -7.46498 89.6450 main 1219 1219 P___________P_ SH011993 -7.46498 89.6450 32 -1 -7.46498 89.6450 TC 32 5 202
1992269S05087 1993 97 SI MM AVIONA 1992-09-26 18:00:00 TS -7.70000 89.5000 main 1240 1240 O___________O_ jtwc_sh SH011993 -7.70000 89.5000 35 0 -7.70000 89.5000 TC 35 5 223
1992269S05087 1993 97 SI MM AVIONA 1992-09-26 21:00:00 TS -7.86502 89.2725 main 1270 1270 P___________P_ SH011993 -7.86502 89.2725 37 0 -7.86502 89.2725 TC 37 6 239
1992269S05087 1993 97 SI MM AVIONA 1992-09-27 00:00:00 TS -8.00000 89.0000 main 1304 1304 O___________O_ jtwc_sh SH011993 -8.00000 89.0000 40 0 -8.00000 89.0000 TC 40 6 241
1992269S05087 1993 97 SI MM AVIONA 1992-09-27 03:00:00 TS -8.15748 88.7500 main 1335 1344 P___________P_ SH011993 -8.15748 88.7500 42 0 -8.15748 88.7500 TC 42 6 239
1992269S05087 1993 97 SI MM AVIONA 1992-09-27 06:00:00 TS -8.30000 88.5000 main 1369 1369 O___________O_ jtwc_sh SH011993 -8.30000 88.5000 45 0 -8.30000 88.5000 TC 45 6 244
1992269S05087 1993 97 SI MM AVIONA 1992-09-27 09:00:00 TS -8.40000 88.2425 main 1403 1403 P___________P_ SH011993 -8.40000 88.2425 47 0 -8.40000 88.2425 TC 47 5 242
1992269S05087 1993 97 SI MM AVIONA 1992-09-27 12:00:00 TS -8.54445 88.0444 28 997 reunion main 1427 1427 O____O______O_ jtwc_sh SH011993 -8.50000 88.0000 50 0 -8.90000 88.4000 2 28 997 2.50000 2.50000 -8.50000 88.0000 TC 50 5 228
1992269S05087 1993 97 SI MM AVIONA 1992-09-27 15:00:00 TS -8.74050 87.8655 main 1449 1449 P____P______P_ SH011993 -8.63499 87.7850 52 0 -9.16254 88.1876 2 28 997 -8.63499 87.7850 TC 52 5 218
1992269S05087 1993 97 SI MM AVIONA 1992-09-27 18:00:00 TS -8.96364 87.7091 28 997 reunion main 1485 1485 O____O______O_ jtwc_sh SH011993 -8.80000 87.6000 55 0 -9.40000 88.0000 2 28 997 2.50000 2.50000 -8.80000 87.6000 TC 55 5 212
1992269S05087 1993 97 SI MM AVIONA 1992-09-27 21:00:00 TS -9.18998 87.5783 main 1507 1507 P____P______P_ SH011993 -8.98498 87.4425 60 0 -9.59997 87.8499 2 28 997 -8.98498 87.4425 TC 55 5 212
1992269S05087 1993 97 SI MM AVIONA 1992-09-28 00:00:00 TS -9.40000 87.4333 28 997 reunion main 1537 1537 O____O______O_ jtwc_sh SH011993 -9.20000 87.3000 65 1 -9.80000 87.7000 2 28 997 2.50000 2.50000 -9.20000 87.3000 TC 55 6 214
1992269S05087 1993 97 SI MM AVIONA 1992-09-28 03:00:00 TS -9.64500 87.2692 main 1559 1559 P____P______P_ SH011993 -9.44249 87.1500 65 1 -10.0500 87.5075 2 28 997 -9.44249 87.1500 TC 55 6 213
1992269S05087 1993 97 SI MM AVIONA 1992-09-28 06:00:00 TS -9.90000 87.1000 28 997 reunion main 1596 1596 O____O______O_ jtwc_sh SH011993 -9.70000 87.0000 65 1 -10.3000 87.3000 2 28 997 2.50000 2.50000 -9.70000 87.0000 TC 55 6 214
1992269S05087 1993 97 SI MM AVIONA 1992-09-28 09:00:00 TS -10.1308 86.9308 main 1627 1627 P____P______P_ SH011993 -9.94249 86.8500 65 1 -10.5075 87.0925 2 31 994 -9.94249 86.8500 TC 55 6 215
1992269S05087 1993 97 SI MM AVIONA 1992-09-28 12:00:00 TS -10.3667 86.7667 35 992 reunion main 1655 1655 O____O______O_ jtwc_sh SH011993 -10.2000 86.7000 65 1 -10.7000 86.9000 3 35 992 3.00000 3.00000 -10.2000 86.7000 TC 55 6 212
1992269S05087 1993 97 SI MM AVIONA 1992-09-28 15:00:00 TS -10.6233 86.6166 main 1686 1686 P____P______P_ SH011993 -10.4850 86.5500 65 1 -10.9000 86.7499 3 36 991 -10.4850 86.5500 TC 55 6 209
1992269S05087 1993 97 SI MM AVIONA 1992-09-28 18:00:00 TS -10.9000 86.4667 37 990 reunion main 1714 1714 O____O______O_ jtwc_sh SH011993 -10.8000 86.4000 65 1 -11.1000 86.6000 3 37 990 3.00000 3.00000 -10.8000 86.4000 TC 55 6 208
1992269S05087 1993 97 SI MM AVIONA 1992-09-28 21:00:00 TS -11.1925 86.3124 main 1752 1752 P____P______P_ SH011993 -11.1425 86.2574 62 0 -11.2925 86.4224 3 38 989 -11.1425 86.2574 TC 55 7 209
1992269S05087 1993 97 SI MM AVIONA 1992-09-29 00:00:00 TS -11.5000 86.1333 40 988 reunion main 1789 1789 O____O______O_ jtwc_sh SH011993 -11.5000 86.1000 60 0 -11.5000 86.2000 3 40 988 3.00000 3.00000 -11.5000 86.1000 TC 55 7 211
1992269S05087 1993 97 SI MM AVIONA 1992-09-29 03:00:00 TS -11.8266 85.9225 main 1827 1827 P____P______P_ SH011993 -11.8650 85.9225 57 0 -11.7500 85.9225 3 40 988 -11.8650 85.9225 TC 55 8 216
1992269S05087 1993 97 SI MM AVIONA 1992-09-29 06:00:00 TS -12.1333 85.6667 40 988 reunion main 1865 1865 O____O______O_ jtwc_sh SH011993 -12.2000 85.7000 55 0 -12.0000 85.6000 3 40 988 3.00000 3.00000 -12.2000 85.7000 TC 55 8 225
1992269S05087 1993 97 SI MM AVIONA 1992-09-29 09:00:00 TS -12.3792 85.3550 main 1911 1911 P____P______P_ SH011993 -12.4650 85.4075 52 0 -12.2075 85.2500 3 40 988 -12.4650 85.4075 TC 52 8 233
1992269S05087 1993 97 SI MM AVIONA 1992-09-29 12:00:00 TS -12.6000 85.0333 40 988 reunion main 1959 1959 O____O______O_ jtwc_sh SH011993 -12.7000 85.1000 50 0 -12.4000 84.9000 3 40 988 3.00000 3.00000 -12.7000 85.1000 TC 50 7 232
1992269S05087 1993 97 SI MM AVIONA 1992-09-29 15:00:00 TS -12.8358 84.7616 main 1990 1990 P____P______P_ SH011993 -12.9500 84.8424 47 0 -12.6074 84.6000 3 38 989 -12.9500 84.8424 TC 47 7 228
1992269S05087 1993 97 SI MM AVIONA 1992-09-29 18:00:00 TS -13.0667 84.5000 37 990 reunion main 2036 2036 O____O______O_ jtwc_sh SH011993 -13.2000 84.6000 45 0 -12.8000 84.3000 3 37 990 3.00000 3.00000 -13.2000 84.6000 TC 45 7 230
1992269S05087 1993 97 SI MM AVIONA 1992-09-29 21:00:00 TS -13.2733 84.2265 main 2076 2076 P____P______P_ SH011993 -13.4500 84.3499 45 0 -12.9199 83.9797 3 37 990 -13.4500 84.3499 TC 45 7 232
1992269S05087 1993 97 SI MM AVIONA 1992-09-30 00:00:00 TS -13.5000 83.9333 37 990 reunion main 2115 2115 O____O______O_ jtwc_sh SH011993 -13.7000 84.1000 45 0 -13.1000 83.6000 3 37 990 3.00000 3.00000 -13.7000 84.1000 TC 45 8 229
1992269S05087 1993 97 SI MM AVIONA 1992-09-30 03:00:00 TS -13.7975 83.6150 main 2161 2161 P____P______P_ SH011993 -13.9649 83.8650 42 0 -13.4626 83.1151 3 37 990 -13.9649 83.8650 TC 42 9 227
1992269S05087 1993 97 SI MM AVIONA 1992-09-30 06:00:00 TS -14.1000 83.2667 37 990 reunion main 2207 2207 O____O______O_ jtwc_sh SH011993 -14.2000 83.6000 40 0 -13.9000 82.6000 3 37 990 3.00000 3.00000 -14.2000 83.6000 TC 40 9 231
1992269S05087 1993 97 SI MM AVIONA 1992-09-30 09:00:00 TS -14.3608 82.8958 main 2262 2262 P____P______P_ SH011993 -14.3725 83.2725 40 0 -14.3374 82.1425 3 36 991 -14.3725 83.2725 TC 40 9 238
1992269S05087 1993 97 SI MM AVIONA 1992-09-30 12:00:00 TS -14.5667 82.5000 35 992 reunion main 2306 2304 O____O______O_ jtwc_sh SH011993 -14.5000 82.9000 40 0 -14.7000 81.7000 3 35 992 2.50000 3.00000 -14.5000 82.9000 TC 40 9 246
1992269S05087 1993 97 SI MM AVIONA 1992-09-30 15:00:00 TS -14.7133 82.0908 main 2313 2313 P____P______P_ SH011993 -14.6150 82.5075 40 0 -14.9099 81.2574 3 35 992 -14.6150 82.5075 TC 40 8 254
1992269S05087 1993 97 SI MM AVIONA 1992-09-30 18:00:00 TS -14.8000 81.6667 35 992 reunion main 2322 2320 O____O______O_ jtwc_sh SH011993 -14.7000 82.1000 40 0 -15.0000 80.8000 3 35 992 2.50000 3.00000 -14.7000 82.1000 TC 40 8 261
1992269S05087 1993 97 SI MM AVIONA 1992-09-30 21:00:00 TS -14.8483 81.2283 main 2319 2319 P____P______P_ SH011993 -14.7649 81.7000 37 0 -15.0151 80.2848 3 31 994 -14.7649 81.7000 TC 37 8 265
1992269S05087 1993 97 SI MM AVIONA 1992-10-01 00:00:00 TS -14.8667 80.8000 28 997 reunion main 2330 2330 O____O______O_ jtwc_sh SH011993 -14.8000 81.3000 35 0 -15.0000 79.8000 2 28 997 2.50000 2.50000 -14.8000 81.3000 TC 35 8 267
1992269S05087 1993 97 SI MM AVIONA 1992-10-01 03:00:00 TS -14.8882 80.4142 main 2330 2330 P____P______P_ SH011993 -14.8074 80.9000 35 0 -15.0498 79.4426 2 28 997 -14.8074 80.9000 TC 35 8 266
1992269S05087 1993 97 SI MM AVIONA 1992-10-01 06:00:00 TS -14.9200 79.9400 28 997 reunion main 2331 2331 O____O______O_ jtwc_sh SH011993 -14.8000 80.5000 35 0 -15.1000 79.1000 2 28 997 2.50000 2.50000 -14.8000 80.5000 TC 35 10 267
1992269S05087 1993 97 SI MM AVIONA 1992-10-01 09:00:00 TS -14.9488 79.3862 main 2333 2290 P____P______P_ SH011993 -14.7976 80.1000 32 -1 -15.0999 78.6724 2 28 997 -14.7976 80.1000 TC 32 12 266
1992269S05087 1993 97 SI MM AVIONA 1992-10-01 12:00:00 TS -15.0000 78.7000 28 997 reunion main 2290 2185 O____O______O_ jtwc_sh SH011993 -14.8000 79.7000 30 -1 -15.1000 78.2000 2 28 997 2.50000 2.50000 -14.8000 79.7000 TC 30 16 263
1992269S05087 1993 97 SI MM AVIONA 1992-10-01 15:00:00 TS -15.1425 77.6925 main 2185 2130 _____P________ SH011993 -1 -15.1425 77.6925 2 28 997 TC 15 262
1992269S05087 1993 97 SI MM AVIONA 1992-10-01 18:00:00 TS -15.2000 77.2000 28 997 reunion main 2130 2090 _____O________ -1 -15.2000 77.2000 2 28 997 2.00000 2.50000 9 263
1992269S05087 1993 97 SI MM AVIONA 1992-10-01 21:00:00 TS -15.2422 76.8074 main 2090 2045 _____P________ -1 -15.2422 76.8074 2 27 997 8 263
1992269S05087 1993 97 SI MM AVIONA 1992-10-02 00:00:00 TS -15.3000 76.4000 27 998 reunion main 2045 1991 _____O________ -1 -15.3000 76.4000 2 27 998 2.00000 2.50000 9 262
1992269S05087 1993 97 SI MM AVIONA 1992-10-02 03:00:00 TS -15.3700 75.8798 main 1991 1926 _____P________ -1 -15.3700 75.8798 2 27 999 11 259
1992269S05087 1993 97 SI MM AVIONA 1992-10-02 06:00:00 TS -15.5000 75.3000 27 1000 reunion main 1926 1869 _____O________ -1 -15.5000 75.3000 2 27 1000 2.00000 2.50000 12 252
1992269S05087 1993 97 SI MM AVIONA 1992-10-02 09:00:00 TS -15.7273 74.7225 main 1858 1787 _____P________ -1 -15.7273 74.7225 2 27 1000 13 247
1992269S05087 1993 97 SI MM AVIONA 1992-10-02 12:00:00 TS -16.0000 74.1000 27 1000 reunion main 1787 1709 _____O________ -1 -16.0000 74.1000 2 27 1000 2.00000 2.00000 14 247
1992269S05087 1993 97 SI MM AVIONA 1992-10-02 15:00:00 TS -16.2575 73.4075 main 1705 1627 _____P________ -1 -16.2575 73.4075 2 27 1000 14 250
1992269S05087 1993 97 SI MM AVIONA 1992-10-02 18:00:00 TS -16.5000 72.7000 27 1000 reunion main 1627 1560 _____O________ -1 -16.5000 72.7000 2 27 1000 2.00000 2.00000 14 251
1992269S05087 1993 97 SI MM AVIONA 1992-10-02 21:00:00 TS -16.7147 72.0423 main 1550 1482 _____P________ -1 -16.7147 72.0423 2 27 1000 13 252
1992269S05087 1993 97 SI MM AVIONA 1992-10-03 00:00:00 TS -16.9000 71.4000 27 1000 reunion main 1482 1414 _____O________ -1 -16.9000 71.4000 2 27 1000 2.00000 2.00000 13 254
1992269S05087 1993 97 SI MM AVIONA 1992-10-03 03:00:00 TS -17.0724 70.7350 main 1404 1340 _____P________ -1 -17.0724 70.7350 2 27 1000 13 256
1992269S05087 1993 97 SI MM AVIONA 1992-10-03 06:00:00 TS -17.2000 70.1000 27 1000 reunion main 1340 1286 _____O________ -1 -17.2000 70.1000 2 27 1000 2.00000 2.00000 12 261
1992269S05087 1993 97 SI MM AVIONA 1992-10-03 09:00:00 TS -17.2648 69.5198 main 1276 1225 _____P________ -1 -17.2648 69.5198 2 27 1000 11 265
1992269S05087 1993 97 SI MM AVIONA 1992-10-03 12:00:00 TS -17.3000 69.0000 27 1000 reunion main 1225 1185 _____O________ -1 -17.3000 69.0000 2 27 1000 2.00000 2.00000 9 265
1992269S05087 1993 97 SI MM AVIONA 1992-10-03 15:00:00 TS -17.3498 68.5350 main 1174 1131 _____P________ -1 -17.3498 68.5350 2 27 1000 9 263
1992269S05087 1993 97 SI MM AVIONA 1992-10-03 18:00:00 TS -17.4000 68.1000 27 1000 reunion main 1131 1090 _____O________ -1 -17.4000 68.1000 2 27 1000 2.00000 2.00000 9 263
1992269S05087 1993 97 SI MM AVIONA 1992-10-03 21:00:00 TS -17.4499 67.6425 main 1080 1037 _____P________ -1 -17.4499 67.6425 2 27 1000 9 263
1992269S05087 1993 97 SI MM AVIONA 1992-10-04 00:00:00 TS -17.5000 67.2000 27 1000 reunion main 1037 997 _____O________ -1 -17.5000 67.2000 2 27 1000 2.00000 2.00000 8 264
1992269S05087 1993 97 SI MM AVIONA 1992-10-04 03:00:00 TS -17.5348 66.7999 main 997 953 _____P________ -1 -17.5348 66.7999 2 27 1000 8 263
1992269S05087 1993 97 SI MM AVIONA 1992-10-04 06:00:00 TS -17.6000 66.4000 27 1000 reunion main 953 909 _____O________ -1 -17.6000 66.4000 2 27 1000 2.00000 2.00000 8 255
1992269S05087 1993 97 SI MM AVIONA 1992-10-04 09:00:00 TS -17.7424 65.9651 main 909 852 _____P________ -1 -17.7424 65.9651 2 27 1001 9 251
1992269S05087 1993 97 SI MM AVIONA 1992-10-04 12:00:00 TS -17.9000 65.5000 27 1002 reunion main 852 798 _____O________ -1 -17.9000 65.5000 2 27 1002 1.50000 2.00000 9 254
1992269S05087 1993 97 SI MM AVIONA 1992-10-04 15:00:00 TS -17.9998 65.0223 main 798 745 _____P________ -1 -17.9998 65.0223 2 25 1003 10 258
1992269S05087 1993 97 SI MM AVIONA 1992-10-04 18:00:00 TS -18.1000 64.5000 23 1004 reunion main 745 691 _____O________ -1 -18.1000 64.5000 2 23 1004 1.50000 2.00000 11 257
1992269S05087 1993 97 SI MM AVIONA 1992-10-04 21:00:00 TS -18.2380 63.9178 main 682 614 _____P________ -1 -18.2380 63.9178 2 23 1005 12 255
1992269S05087 1993 97 SI MM AVIONA 1992-10-05 00:00:00 TS -18.4000 63.3000 23 1006 reunion main 614 _____O________ -1 -18.4000 63.3000 6 23 1006 1.50000 2.00000 12 255

IBTrACS Databaseについて

本データベースは、米国NOAAが公開する1842年以降の世界の熱帯低気圧のベストトラックデータアーカイブInternational Best Track Archive for Climate Stewardship (IBTrACS)を、ウェブで閲覧しやすい形式に変換したものです。

最終更新日:2021-10-21